createdAt,value
2022-12-01T00:00:19.238Z,3.13
2022-12-01T00:03:11.594Z,3.11
2022-12-01T00:05:43.608Z,3.11
2022-12-01T00:08:15.563Z,3.08
2022-12-01T00:10:47.549Z,3.03
2022-12-01T00:13:20.129Z,3.03
2022-12-01T00:15:52.143Z,3.11
2022-12-01T00:18:24.620Z,3.13
2022-12-01T00:20:57.047Z,3.15
2022-12-01T00:23:29.056Z,3.19
2022-12-01T00:26:06.499Z,3.23
2022-12-01T00:28:39.227Z,3.21
2022-12-01T00:31:11.968Z,3.21
2022-12-01T00:33:43.952Z,3.23
2022-12-01T00:36:15.933Z,3.24
2022-12-01T00:38:48.491Z,3.23
2022-12-01T00:41:21.124Z,3.20
2022-12-01T00:43:53.469Z,3.18
2022-12-01T00:46:25.490Z,3.16
2022-12-01T00:48:57.548Z,3.15
2022-12-01T00:51:30.077Z,3.14
2022-12-01T00:54:02.040Z,3.12
2022-12-01T00:56:34.181Z,3.12
2022-12-01T00:59:06.210Z,3.10
2022-12-01T01:01:38.234Z,3.05
2022-12-01T01:04:10.348Z,3.06
2022-12-01T01:06:43.443Z,3.16
2022-12-01T01:09:16.239Z,3.20
2022-12-01T01:11:48.547Z,3.22
2022-12-01T01:14:20.753Z,3.25
2022-12-01T01:16:54.264Z,3.29
2022-12-01T01:19:26.409Z,3.31
2022-12-01T01:21:58.372Z,3.33
2022-12-01T01:24:30.412Z,3.34
2022-12-01T01:27:04.832Z,3.34
2022-12-01T01:29:37.207Z,3.34
2022-12-01T01:32:09.491Z,3.34
2022-12-01T01:34:41.494Z,3.34
2022-12-01T01:37:13.508Z,3.33
2022-12-01T01:39:47.180Z,3.32
2022-12-01T01:42:22.195Z,3.30
2022-12-01T01:44:56.080Z,3.29
2022-12-01T01:47:31.649Z,3.25
2022-12-01T01:50:08.584Z,3.22
2022-12-01T01:52:44.129Z,3.21
2022-12-01T01:55:19.087Z,3.22
2022-12-01T01:57:49.516Z,3.29
2022-12-01T02:00:22.951Z,3.31
2022-12-01T02:02:58.369Z,3.34
2022-12-01T02:05:35.030Z,3.37
2022-12-01T02:08:12.451Z,3.42
2022-12-01T02:10:58.568Z,3.43
2022-12-01T02:13:42.178Z,3.46
2022-12-01T02:16:20.511Z,3.46
2022-12-01T02:19:00.314Z,3.47
2022-12-01T02:21:43.670Z,3.46
2022-12-01T02:24:38.237Z,3.42
2022-12-01T02:27:21.158Z,3.37
2022-12-01T02:30:11.145Z,3.34
2022-12-01T02:32:53.936Z,3.30
2022-12-01T02:35:35.813Z,3.25
2022-12-01T02:38:16.263Z,3.23
2022-12-01T02:40:52.714Z,3.21
2022-12-01T02:43:28.511Z,3.19
2022-12-01T02:46:05.740Z,3.18
2022-12-01T02:48:39.816Z,3.27
2022-12-01T02:51:14.927Z,3.30
2022-12-01T02:53:47.121Z,3.33
2022-12-01T02:56:24.030Z,3.38
2022-12-01T02:58:56.066Z,3.42
2022-12-01T03:01:52.685Z,3.44
2022-12-01T03:04:45.613Z,3.43
2022-12-01T03:07:33.392Z,3.40
2022-12-01T03:10:13.251Z,3.37
2022-12-01T03:13:00.076Z,3.34
2022-12-01T03:15:37.595Z,3.31
2022-12-01T03:18:20.376Z,3.30
2022-12-01T03:20:58.422Z,3.28
2022-12-01T03:23:34.842Z,3.25
2022-12-01T03:26:10.211Z,3.22
2022-12-01T03:28:48.191Z,3.19
2022-12-01T03:31:26.632Z,3.16
2022-12-01T03:34:04.035Z,3.17
2022-12-01T03:36:39.977Z,3.26
2022-12-01T03:39:16.933Z,3.28
2022-12-01T03:41:55.578Z,3.32
2022-12-01T03:44:31.970Z,3.35
2022-12-01T03:47:07.466Z,3.38
2022-12-01T03:49:41.146Z,3.39
2022-12-01T03:52:21.020Z,3.40
2022-12-01T03:55:04.656Z,3.39
2022-12-01T03:57:42.277Z,3.36
2022-12-01T04:00:17.250Z,3.34
2022-12-01T04:02:49.092Z,3.30
2022-12-01T04:05:25.154Z,3.25
2022-12-01T04:07:57.955Z,3.24
2022-12-01T04:10:30.031Z,3.22
2022-12-01T04:13:02.122Z,3.21
2022-12-01T04:15:34.062Z,3.21
2022-12-01T04:18:06.588Z,3.20
2022-12-01T04:20:38.499Z,3.18
2022-12-01T04:23:10.488Z,3.16
2022-12-01T04:25:42.478Z,3.22
2022-12-01T04:28:14.440Z,3.25
2022-12-01T04:30:46.301Z,3.27
2022-12-01T04:33:18.215Z,3.28
2022-12-01T04:35:59.167Z,3.30
2022-12-01T04:38:31.253Z,3.29
2022-12-01T04:41:03.166Z,3.32
2022-12-01T04:43:35.130Z,3.35
2022-12-01T04:46:07.810Z,3.35
2022-12-01T04:48:40.745Z,3.35
2022-12-01T04:51:12.991Z,3.34
2022-12-01T04:53:45.266Z,3.31
2022-12-01T04:56:17.431Z,3.28
2022-12-01T04:58:49.982Z,3.26
2022-12-01T05:01:21.898Z,3.24
2022-12-01T05:03:53.909Z,3.21
2022-12-01T05:06:28.509Z,3.19
2022-12-01T05:09:02.403Z,3.26
2022-12-01T05:11:34.740Z,3.27
2022-12-01T05:14:07.501Z,3.30
2022-12-01T05:16:39.562Z,3.33
2022-12-01T05:19:29.221Z,3.35
2022-12-01T05:22:01.158Z,3.33
2022-12-01T05:24:33.069Z,3.32
2022-12-01T05:27:05.031Z,3.32
2022-12-01T05:29:37.354Z,3.30
2022-12-01T05:32:10.274Z,3.28
2022-12-01T05:34:42.252Z,3.27
2022-12-01T05:37:14.317Z,3.24
2022-12-01T05:39:46.591Z,3.21
2022-12-01T05:42:18.784Z,3.17
2022-12-01T05:44:50.796Z,3.12
2022-12-01T05:47:22.683Z,3.11
2022-12-01T05:49:54.984Z,3.10
2022-12-01T05:52:27.148Z,3.18
2022-12-01T05:54:59.136Z,3.20
2022-12-01T05:57:31.357Z,3.22
2022-12-01T06:00:03.771Z,3.27
2022-12-01T06:02:44.246Z,3.30
2022-12-01T06:05:16.364Z,3.27
2022-12-01T06:07:48.403Z,3.25
2022-12-01T06:10:20.740Z,3.23
2022-12-01T06:12:52.688Z,3.23
2022-12-01T06:15:24.576Z,3.22
2022-12-01T06:18:00.103Z,3.18
2022-12-01T06:20:32.979Z,3.14
2022-12-01T06:23:05.172Z,3.11
2022-12-01T06:25:37.135Z,3.06
2022-12-01T06:28:09.100Z,3.03
2022-12-01T06:30:41.114Z,3.01
2022-12-01T06:33:13.359Z,3.09
2022-12-01T06:35:45.271Z,3.13
2022-12-01T06:38:17.208Z,3.14
2022-12-01T06:40:49.197Z,3.15
2022-12-01T06:43:21.135Z,3.18
2022-12-01T06:45:56.446Z,3.21
2022-12-01T06:48:34.514Z,3.21
2022-12-01T06:51:06.755Z,3.21
2022-12-01T06:53:38.691Z,3.21
2022-12-01T06:56:12.572Z,3.22
2022-12-01T06:58:44.820Z,3.21
2022-12-01T07:01:17.289Z,3.21
2022-12-01T07:03:51.897Z,3.20
2022-12-01T07:06:24.524Z,3.18
2022-12-01T07:08:56.847Z,3.14
2022-12-01T07:11:30.170Z,3.15
2022-12-01T07:14:02.362Z,3.21
2022-12-01T07:16:34.401Z,3.25
2022-12-01T07:19:06.419Z,3.26
2022-12-01T07:21:38.352Z,3.28
2022-12-01T07:24:13.452Z,3.27
2022-12-01T07:26:45.840Z,3.29
2022-12-01T07:29:17.855Z,3.30
2022-12-01T07:31:49.817Z,3.31
2022-12-01T07:34:21.703Z,3.30
2022-12-01T07:36:53.769Z,3.29
2022-12-01T07:39:25.706Z,3.29
2022-12-01T07:41:57.671Z,3.28
2022-12-01T07:44:29.633Z,3.27
2022-12-01T07:47:01.546Z,3.26
2022-12-01T07:49:34.410Z,3.27
2022-12-01T07:52:06.810Z,3.34
2022-12-01T07:54:38.772Z,3.37
2022-12-01T07:57:14.447Z,3.39
2022-12-01T07:59:46.554Z,3.43
2022-12-01T08:02:18.804Z,3.48
2022-12-01T08:04:50.997Z,3.50
2022-12-01T08:07:26.085Z,3.51
2022-12-01T08:10:01.570Z,3.53
2022-12-01T08:12:33.547Z,3.53
2022-12-01T08:15:06.141Z,3.55
2022-12-01T08:17:38.395Z,3.54
2022-12-01T08:20:12.881Z,3.50
2022-12-01T08:22:44.908Z,3.48
2022-12-01T08:25:16.973Z,3.45
2022-12-01T08:27:48.882Z,3.46
2022-12-01T08:30:21.234Z,3.54
2022-12-01T08:32:56.473Z,3.57
2022-12-01T08:35:28.771Z,3.59
2022-12-01T08:38:00.757Z,3.64
2022-12-01T08:40:32.925Z,3.69
2022-12-01T08:43:05.425Z,3.70
2022-12-01T08:45:37.312Z,3.70
2022-12-01T08:48:09.352Z,3.71
2022-12-01T08:50:41.625Z,3.72
2022-12-01T08:53:13.505Z,3.73
2022-12-01T08:55:45.448Z,3.75
2022-12-01T08:58:17.359Z,3.75
2022-12-01T09:00:49.246Z,3.75
2022-12-01T09:03:21.301Z,3.77
2022-12-01T09:05:53.301Z,3.78
2022-12-01T09:08:35.377Z,3.82
2022-12-01T09:11:09.364Z,3.93
2022-12-01T09:13:42.326Z,3.98
2022-12-01T09:16:16.777Z,4.03
2022-12-01T09:18:49.656Z,4.08
2022-12-01T09:21:23.821Z,4.10
2022-12-01T09:23:56.250Z,4.12
2022-12-01T09:26:29.449Z,4.13
2022-12-01T09:29:03.248Z,4.13
2022-12-01T09:31:35.800Z,4.13
2022-12-01T09:34:09.603Z,4.12
2022-12-01T09:36:41.779Z,4.08
2022-12-01T09:39:16.526Z,4.05
2022-12-01T09:41:51.999Z,4.02
2022-12-01T09:44:38.806Z,4.00
2022-12-01T09:47:19.526Z,3.99
2022-12-01T09:50:00.329Z,3.96
2022-12-01T09:52:39.709Z,3.95
2022-12-01T09:55:16.350Z,4.01
2022-12-01T09:57:50.346Z,4.01
2022-12-01T10:00:26.401Z,4.03
2022-12-01T10:03:02.055Z,4.09
2022-12-01T10:06:18.080Z,4.15
2022-12-01T10:08:40.154Z,4.17
2022-12-01T10:11:20.516Z,4.20
2022-12-01T10:13:52.556Z,4.24
2022-12-01T10:16:30.351Z,4.25
2022-12-01T10:19:09.899Z,4.25
2022-12-01T10:22:00.624Z,4.20
2022-12-01T10:24:45.568Z,4.16
2022-12-01T10:27:27.050Z,4.14
2022-12-01T10:30:07.096Z,4.11
2022-12-01T10:32:47.059Z,4.07
2022-12-01T10:35:20.864Z,4.04
2022-12-01T10:37:57.791Z,4.04
2022-12-01T10:40:34.700Z,4.12
2022-12-01T10:43:06.596Z,4.12
2022-12-01T10:45:41.727Z,4.13
2022-12-01T10:48:17.348Z,4.14
2022-12-01T10:50:51.590Z,4.18
2022-12-01T10:53:32.638Z,4.21
2022-12-01T10:56:11.606Z,4.24
2022-12-01T10:58:48.190Z,4.25
2022-12-01T11:01:24.261Z,4.25
2022-12-01T11:03:59.720Z,4.24
2022-12-01T11:06:33.860Z,4.25
2022-12-01T11:09:08.384Z,4.23
2022-12-01T11:11:41.780Z,4.21
2022-12-01T11:14:22.680Z,4.19
2022-12-01T11:16:55.379Z,4.18
2022-12-01T11:19:33.947Z,4.17
2022-12-01T11:22:23.095Z,4.17
2022-12-01T11:25:03.795Z,4.21
2022-12-01T11:27:48.372Z,4.23
2022-12-01T11:30:27.246Z,4.24
2022-12-01T11:33:01.779Z,4.28
2022-12-01T11:35:37.626Z,4.30
2022-12-01T11:38:35.654Z,4.28
2022-12-01T11:41:09.841Z,4.28
2022-12-01T11:43:46.560Z,4.26
2022-12-01T11:46:32.762Z,4.25
2022-12-01T11:49:05.621Z,4.23
2022-12-01T11:51:38.327Z,4.21
2022-12-01T11:54:18.330Z,4.20
2022-12-01T11:57:17.392Z,4.19
2022-12-01T11:59:44.400Z,4.19
2022-12-01T12:02:27.899Z,4.18
2022-12-01T12:05:22.989Z,4.15
2022-12-01T12:08:05.062Z,4.14
2022-12-01T12:10:49.995Z,4.20
2022-12-01T12:13:41.658Z,4.23
2022-12-01T12:16:20.641Z,4.25
2022-12-01T12:19:12.183Z,4.27
2022-12-01T12:22:05.089Z,4.28
2022-12-01T12:24:50.312Z,4.26
2022-12-01T12:27:30.556Z,4.27
2022-12-01T12:30:15.119Z,4.29
2022-12-01T12:33:15.075Z,4.29
2022-12-01T12:35:55.862Z,4.28
2022-12-01T12:38:44.632Z,4.25
2022-12-01T12:41:30.650Z,4.19
2022-12-01T12:44:14.358Z,4.12
2022-12-01T12:46:54.158Z,4.06
2022-12-01T12:49:38.047Z,4.05
2022-12-01T12:52:15.003Z,4.10
2022-12-01T12:54:52.702Z,4.10
2022-12-01T12:57:30.275Z,4.11
2022-12-01T13:00:07.715Z,4.13
2022-12-01T13:02:44.728Z,4.16
2022-12-01T13:05:21.602Z,4.19
2022-12-01T13:07:59.848Z,4.18
2022-12-01T13:10:38.300Z,4.19
2022-12-01T13:13:21.915Z,4.18
2022-12-01T13:15:56.495Z,4.13
2022-12-01T13:18:42.747Z,4.10
2022-12-01T13:21:20.434Z,4.05
2022-12-01T13:23:53.753Z,4.01
2022-12-01T13:26:26.128Z,3.97
2022-12-01T13:28:59.677Z,3.94
2022-12-01T13:31:42.628Z,3.92
2022-12-01T13:34:25.005Z,4.00
2022-12-01T13:36:58.455Z,3.99
2022-12-01T13:39:35.841Z,3.99
2022-12-01T13:42:10.642Z,4.01
2022-12-01T13:44:43.329Z,4.04
2022-12-01T13:47:49.775Z,4.03
2022-12-01T13:53:53.736Z,4.03
2022-12-01T13:56:39.559Z,4.00
2022-12-01T14:00:06.070Z,3.98
2022-12-01T14:02:47.459Z,3.92
2022-12-01T14:05:46.837Z,3.87
2022-12-01T14:08:24.780Z,3.79
2022-12-01T14:11:00.764Z,3.77
2022-12-01T14:13:37.776Z,3.83
2022-12-01T14:16:11.199Z,3.87
2022-12-01T14:18:50.459Z,3.91
2022-12-01T14:21:44.155Z,3.95
2022-12-01T14:24:29.005Z,3.97
2022-12-01T14:27:01.164Z,3.92
2022-12-01T14:29:35.290Z,3.89
2022-12-01T14:32:24.295Z,3.88
2022-12-01T14:35:04.082Z,3.85
2022-12-01T14:37:51.052Z,3.83
2022-12-01T14:40:30.414Z,3.83
2022-12-01T14:43:20.376Z,3.83
2022-12-01T14:46:04.295Z,3.79
2022-12-01T14:48:40.690Z,3.78
2022-12-01T14:51:28.445Z,3.86
2022-12-01T14:54:03.150Z,3.90
2022-12-01T14:56:37.595Z,3.88
2022-12-01T14:59:23.128Z,3.89
2022-12-01T15:01:59.557Z,3.93
2022-12-01T15:04:31.662Z,3.95
2022-12-01T15:07:03.855Z,3.96
2022-12-01T15:09:36.337Z,3.95
2022-12-01T15:12:25.831Z,3.93
2022-12-01T15:14:57.793Z,3.91
2022-12-01T15:17:34.692Z,3.87
2022-12-01T15:20:27.631Z,3.86
2022-12-01T15:22:59.892Z,3.83
2022-12-01T15:25:35.747Z,3.82
2022-12-01T15:28:15.677Z,3.87
2022-12-01T15:30:50.917Z,3.88
2022-12-01T15:33:27.820Z,3.88
2022-12-01T15:36:03.911Z,3.88
2022-12-01T15:38:38.100Z,3.90
2022-12-01T15:41:29.449Z,3.88
2022-12-01T15:44:03.795Z,3.89
2022-12-01T15:46:36.548Z,3.91
2022-12-01T15:49:20.333Z,3.90
2022-12-01T15:51:53.140Z,3.84
2022-12-01T15:54:27.562Z,3.80
2022-12-01T15:57:01.372Z,3.77
2022-12-01T15:59:38.969Z,3.74
2022-12-01T16:02:28.514Z,3.74
2022-12-01T16:05:16.150Z,3.82
2022-12-01T16:08:12.705Z,3.83
2022-12-01T16:10:40.813Z,3.85
2022-12-01T16:13:42.933Z,3.89
2022-12-01T16:16:40.094Z,3.90
2022-12-01T16:19:28.252Z,3.87
2022-12-01T16:22:05.898Z,3.84
2022-12-01T16:24:44.056Z,3.83
2022-12-01T16:27:23.469Z,3.78
2022-12-01T16:29:57.432Z,3.74
2022-12-01T16:32:34.718Z,3.71
2022-12-01T16:35:07.883Z,3.66
2022-12-01T16:37:39.805Z,3.61
2022-12-01T16:40:16.854Z,3.57
2022-12-01T16:42:50.056Z,3.55
2022-12-01T16:45:23.240Z,3.60
2022-12-01T16:47:55.178Z,3.62
2022-12-01T16:50:27.144Z,3.63
2022-12-01T16:52:59.105Z,3.61
2022-12-01T16:55:39.441Z,3.59
2022-12-01T16:58:11.275Z,3.53
2022-12-01T17:00:43.518Z,3.49
2022-12-01T17:03:17.939Z,3.49
2022-12-01T17:05:50.774Z,3.48
2022-12-01T17:08:22.866Z,3.47
2022-12-01T17:10:55.597Z,3.43
2022-12-01T17:13:28.305Z,3.36
2022-12-01T17:16:04.446Z,3.32
2022-12-01T17:18:37.605Z,3.26
2022-12-01T17:21:11.427Z,3.26
2022-12-01T17:23:43.452Z,3.33
2022-12-01T17:26:18.209Z,3.36
2022-12-01T17:28:50.555Z,3.38
2022-12-01T17:31:22.947Z,3.40
2022-12-01T17:33:54.944Z,3.39
2022-12-01T17:36:26.905Z,3.37
2022-12-01T17:38:59.126Z,3.38
2022-12-01T17:41:35.857Z,3.40
2022-12-01T17:44:08.248Z,3.38
2022-12-01T17:46:41.963Z,3.35
2022-12-01T17:49:14.068Z,3.30
2022-12-01T17:51:46.090Z,3.26
2022-12-01T17:54:18.074Z,3.24
2022-12-01T17:56:50.676Z,3.19
2022-12-01T17:59:22.614Z,3.13
2022-12-01T18:01:54.937Z,3.12
2022-12-01T18:04:27.004Z,3.19
2022-12-01T18:06:59.200Z,3.22
2022-12-01T18:09:31.362Z,3.27
2022-12-01T18:12:05.379Z,3.34
2022-12-01T18:14:38.376Z,3.38
2022-12-01T18:17:10.862Z,3.44
2022-12-01T18:19:42.952Z,3.51
2022-12-01T18:22:15.122Z,3.57
2022-12-01T18:24:47.254Z,3.62
2022-12-01T18:27:19.459Z,3.66
2022-12-01T18:29:51.626Z,3.67
2022-12-01T18:32:23.819Z,3.68
2022-12-01T18:34:55.936Z,3.69
2022-12-01T18:37:28.028Z,3.69
2022-12-01T18:40:00.291Z,3.67
2022-12-01T18:42:32.900Z,3.66
2022-12-01T18:45:05.229Z,3.66
2022-12-01T18:47:37.316Z,3.65
2022-12-01T18:50:11.796Z,3.66
2022-12-01T18:52:43.879Z,3.67
2022-12-01T18:55:16.120Z,3.69
2022-12-01T18:57:48.216Z,3.73
2022-12-01T19:00:21.776Z,3.77
2022-12-01T19:02:56.878Z,3.78
2022-12-01T19:05:30.788Z,3.77
2022-12-01T19:08:04.018Z,3.76
2022-12-01T19:10:36.405Z,3.73
2022-12-01T19:13:08.622Z,3.75
2022-12-01T19:15:40.894Z,3.79
2022-12-01T19:18:13.574Z,3.84
2022-12-01T19:20:45.742Z,3.85
2022-12-01T19:23:17.889Z,3.78
2022-12-01T19:25:50.001Z,3.76
2022-12-01T19:28:22.195Z,3.75
2022-12-01T19:30:55.251Z,3.69
2022-12-01T19:33:28.044Z,3.65
2022-12-01T19:36:04.511Z,3.61
2022-12-01T19:38:36.680Z,3.60
2022-12-01T19:41:10.563Z,3.62
2022-12-01T19:43:43.578Z,3.65
2022-12-01T19:46:17.911Z,3.66
2022-12-01T19:48:54.364Z,3.66
2022-12-01T19:51:29.859Z,3.66
2022-12-01T19:54:02.336Z,3.61
2022-12-01T19:56:34.554Z,3.59
2022-12-01T19:59:08.105Z,3.57
2022-12-01T20:01:41.639Z,3.56
2022-12-01T20:04:14.004Z,3.56
2022-12-01T20:06:46.068Z,3.56
2022-12-01T20:09:18.237Z,3.57
2022-12-01T20:11:50.354Z,3.60
2022-12-01T20:14:22.447Z,3.58
2022-12-01T20:16:56.893Z,3.56
2022-12-01T20:19:29.116Z,3.55
2022-12-01T20:22:01.229Z,3.56
2022-12-01T20:24:33.323Z,3.58
2022-12-01T20:27:05.463Z,3.61
2022-12-01T20:29:37.608Z,3.63
2022-12-01T20:32:09.813Z,3.63
2022-12-01T20:34:42.020Z,3.63
2022-12-01T20:37:14.366Z,3.64
2022-12-01T20:39:47.866Z,3.64
2022-12-01T20:42:22.376Z,3.64
2022-12-01T20:44:54.583Z,3.64
2022-12-01T20:47:26.751Z,3.62
2022-12-01T20:49:59.328Z,3.63
2022-12-01T20:52:31.472Z,3.61
2022-12-01T20:55:03.678Z,3.62
2022-12-01T20:57:35.812Z,3.62
2022-12-01T21:00:13.172Z,3.61
2022-12-01T21:02:46.153Z,3.60
2022-12-01T21:05:18.279Z,3.64
2022-12-01T21:07:50.750Z,3.57
2022-12-01T21:10:23.024Z,3.54
2022-12-01T21:13:17.234Z,3.53
2022-12-01T21:15:58.565Z,3.54
2022-12-01T21:18:41.424Z,3.56
2022-12-01T21:21:24.024Z,3.56
2022-12-01T21:24:13.527Z,3.57
2022-12-01T21:26:50.531Z,3.58
2022-12-01T21:29:26.590Z,3.58
2022-12-01T21:32:04.290Z,3.59
2022-12-01T21:34:37.377Z,3.59
2022-12-01T21:37:18.609Z,3.57
2022-12-01T21:39:51.903Z,3.55
2022-12-01T21:42:26.912Z,3.56
2022-12-01T21:44:59.977Z,3.56
2022-12-01T21:47:32.890Z,3.56
2022-12-01T21:50:20.005Z,3.54
2022-12-01T21:52:52.587Z,3.56
2022-12-01T21:55:41.495Z,3.52
2022-12-01T21:58:29.131Z,3.52
2022-12-01T22:01:02.340Z,3.50
2022-12-01T22:03:39.165Z,3.49
2022-12-01T22:06:31.121Z,3.49
2022-12-01T22:09:15.586Z,3.49
2022-12-01T22:11:52.428Z,3.49
2022-12-01T22:14:29.163Z,3.50
2022-12-01T22:17:10.598Z,3.55
2022-12-01T22:19:46.035Z,3.57
2022-12-01T22:22:26.044Z,3.58
2022-12-01T22:25:01.390Z,3.57
2022-12-01T22:27:33.464Z,3.58
2022-12-01T22:30:18.780Z,3.58
2022-12-01T22:32:59.115Z,3.58
2022-12-01T22:35:35.080Z,3.58
2022-12-01T22:38:37.115Z,3.58
2022-12-01T22:41:12.970Z,3.55
2022-12-01T22:43:51.103Z,3.52
2022-12-01T22:46:32.555Z,3.52
2022-12-01T22:49:19.636Z,3.54
2022-12-01T22:51:53.874Z,3.55
2022-12-01T22:54:38.491Z,3.54
2022-12-01T22:57:31.259Z,3.47
2022-12-01T23:00:17.203Z,3.39
2022-12-01T23:02:50.806Z,3.33
2022-12-01T23:05:27.555Z,3.27
2022-12-01T23:08:00.009Z,3.18
2022-12-01T23:10:35.649Z,3.13
2022-12-01T23:13:20.017Z,3.08
2022-12-01T23:15:54.278Z,3.08
2022-12-01T23:18:29.644Z,3.09
2022-12-01T23:21:02.989Z,3.09
2022-12-01T23:23:37.692Z,3.08
2022-12-01T23:26:11.218Z,3.05
2022-12-01T23:28:43.319Z,3.03
2022-12-01T23:31:15.590Z,3.07
2022-12-01T23:33:47.876Z,3.11
2022-12-01T23:36:24.701Z,3.13
2022-12-01T23:39:03.463Z,3.15
2022-12-01T23:41:38.436Z,3.16
2022-12-01T23:44:19.740Z,3.12
2022-12-01T23:46:55.174Z,3.07
2022-12-01T23:49:31.146Z,3.04
2022-12-01T23:52:04.515Z,3.01
2022-12-01T23:54:39.344Z,2.97
2022-12-01T23:57:20.450Z,2.97
2022-12-01T23:59:55.589Z,2.97
